Time;durP1;ratioP1;P1;durP2;ratioP2;P2;SDS_P1;SDS_P2;PMS_P1;PMS_P2;Temp;Humidity;BMP_temperature;BMP_pressure;BME280_temperature;BME280_humidity;BME280_pressure;Samples;Min_cycle;Max_cycle;Signal;HPM_P1;HPM_P2
2023/03/25 00:00:58;;;;;;;;;;;;;;;;;;5006318;28;43001;-78
2023/03/25 00:03:25;;;;;;;;;;;;;;;;;;5025407;28;43040;-76
2023/03/25 00:05:51;;;;;;;;;;;;;;;;;;5024438;28;42985;-77
2023/03/25 00:08:16;;;;;;;;;;;;;;;;;;5025188;28;43721;-78
2023/03/25 00:10:42;;;;;;;;;;;;;;;;;;5025273;28;42942;-80
2023/03/25 00:13:12;;;;;;;;;;;;;;;;;;5024089;28;43405;-79
2023/03/25 00:15:38;;;;;;;;;;;;;;;;;;5024470;28;42976;-79
2023/03/25 00:18:04;;;;;;;;;;;;;;;;;;5024601;28;42968;-79
2023/03/25 00:20:31;;;;;;;;;;;;;;;;;;5024149;28;42927;-79
2023/03/25 00:22:57;;;;;;;;;;;;;;;;;;5025048;28;43326;-80
2023/03/25 00:25:23;;;;;;;;;;;;;;;;;;5022414;28;42898;-80
2023/03/25 00:27:49;;;;;;;;;;;;;;;;;;5024405;28;42955;-80
2023/03/25 00:30:15;;;;;;;;;;;;;;;;;;5024870;28;42869;-79
2023/03/25 00:32:44;;;;;;;;;;;;;;;;;;5024635;28;43398;-80
2023/03/25 00:35:12;;;;;;;;;;;;;;;;;;5005922;28;42958;-80
2023/03/25 00:37:38;;;;;;;;;;;;;;;;;;5023884;28;43769;-79
2023/03/25 00:40:04;;;;;;;;;;;;;;;;;;5023543;28;43050;-78
2023/03/25 00:42:30;;;;;;;;;;;;;;;;;;5008454;28;42890;-79
2023/03/25 00:44:56;;;;;;;;;;;;;;;;;;5018761;28;42826;-78
2023/03/25 00:47:23;;;;;;;;;;;;;;;;;;5024431;28;42869;-78
2023/03/25 00:49:49;;;;;;;;;;;;;;;;;;5027148;28;43007;-77
2023/03/25 00:52:15;;;;;;;;;;;;;;;;;;5027024;28;43517;-77
2023/03/25 00:54:42;;;;;;;;;;;;;;;;;;5028231;28;42982;-79
2023/03/25 00:57:08;;;;;;;;;;;;;;;;;;5027697;28;43003;-79
2023/03/25 00:59:34;;;;;;;;;;;;;;;;;;5027920;28;42771;-77
2023/03/25 01:02:01;;;;;;;;;;;;;;;;;;5027072;28;43637;-76
2023/03/25 01:04:28;;;;;;;;;;;;;;;;;;5027324;28;42933;-79
2023/03/25 01:06:54;;;;;;;;;;;;;;;;;;5027568;28;43315;-78
2023/03/25 01:09:20;;;;;;;;;;;;;;;;;;5027598;28;42859;-78
2023/03/25 01:11:46;;;;;;;;;;;;;;;;;;5026771;28;42900;-78
2023/03/25 01:14:12;;;;;;;;;;;;;;;;;;5027654;28;43098;-78
2023/03/25 01:16:38;;;;;;;;;;;;;;;;;;5027248;28;43728;-79
2023/03/25 01:19:04;;;;;;;;;;;;;;;;;;5009601;28;42840;-78
2023/03/25 01:21:32;;;;;;;;;;;;;;;;;;5027748;28;42899;-78
2023/03/25 01:23:58;;;;;;;;;;;;;;;;;;5027556;28;42881;-79
2023/03/25 01:26:24;;;;;;;;;;;;;;;;;;5026664;28;43109;-77
2023/03/25 01:28:50;;;;;;;;;;;;;;;;;;5027236;28;42805;-77
2023/03/25 01:31:16;;;;;;;;;;;;;;;;;;5027257;28;43461;-79
2023/03/25 01:33:42;;;;;;;;;;;;;;;;;;5008910;28;42992;-77
2023/03/25 01:36:08;;;;;;;;;;;;;;;;;;5026766;28;42902;-79
2023/03/25 01:38:34;;;;;;;;;;;;;;;;;;5008818;28;42935;-79
2023/03/25 01:41:00;;;;;;;;;;;;;;;;;;5026904;28;43004;-78
2023/03/25 01:43:26;;;;;;;;;;;;;;;;;;5027167;28;42902;-78
2023/03/25 01:45:52;;;;;;;;;;;;;;;;;;5026901;28;43001;-80
2023/03/25 01:48:17;;;;;;;;;;;;;;;;;;5027659;28;42872;-79
2023/03/25 01:50:43;;;;;;;;;;;;;;;;;;5027018;28;43733;-79
2023/03/25 01:53:09;;;;;;;;;;;;;;;;;;5027199;28;42928;-78
2023/03/25 01:55:35;;;;;;;;;;;;;;;;;;5026844;28;42798;-79
2023/03/25 01:58:01;;;;;;;;;;;;;;;;;;5027217;28;42849;-79
2023/03/25 02:00:27;;;;;;;;;;;;;;;;;;5025721;28;42947;-80
2023/03/25 02:02:57;;;;;;;;;;;;;;;;;;5026165;28;42898;-79
2023/03/25 02:05:24;;;;;;;;;;;;;;;;;;5025966;28;43394;-79
2023/03/25 02:07:51;;;;;;;;;;;;;;;;;;5024456;28;42929;-78
2023/03/25 02:10:17;;;;;;;;;;;;;;;;;;5026117;28;42941;-79
2023/03/25 02:12:44;;;;;;;;;;;;;;;;;;5022028;28;43012;-80
2023/03/25 02:15:10;;;;;;;;;;;;;;;;;;5026104;28;43958;-80
2023/03/25 02:17:36;;;;;;;;;;;;;;;;;;5025929;28;42916;-77
2023/03/25 02:20:05;;;;;;;;;;;;;;;;;;5025063;28;43032;-80
2023/03/25 02:22:36;;;;;;;;;;;;;;;;;;5025209;28;43049;-79
2023/03/25 02:25:03;;;;;;;;;;;;;;;;;;5025359;28;44970;-77
2023/03/25 02:27:32;;;;;;;;;;;;;;;;;;5025528;28;42882;-77
2023/03/25 02:29:58;;;;;;;;;;;;;;;;;;5024644;28;44424;-77
2023/03/25 02:32:24;;;;;;;;;;;;;;;;;;5025376;28;42984;-79
2023/03/25 02:34:50;;;;;;;;;;;;;;;;;;5025253;28;42913;-76
2023/03/25 02:37:16;;;;;;;;;;;;;;;;;;5024027;28;43001;-79
2023/03/25 02:39:42;;;;;;;;;;;;;;;;;;5025465;28;42972;-76
2023/03/25 02:42:08;;;;;;;;;;;;;;;;;;5026125;28;42885;-79
2023/03/25 02:44:34;;;;;;;;;;;;;;;;;;5025978;28;43579;-79
2023/03/25 02:47:00;;;;;;;;;;;;;;;;;;5024920;28;42888;-77
2023/03/25 02:49:26;;;;;;;;;;;;;;;;;;5024733;28;43004;-77
2023/03/25 02:51:52;;;;;;;;;;;;;;;;;;5007158;28;42967;-78
2023/03/25 02:54:17;;;;;;;;;;;;;;;;;;5025193;28;43146;-76
2023/03/25 02:56:44;;;;;;;;;;;;;;;;;;5025488;28;42971;-77
2023/03/25 02:59:13;;;;;;;;;;;;;;;;;;5025441;28;42967;-77
2023/03/25 03:01:38;;;;;;;;;;;;;;;;;;5025706;28;42783;-76
2023/03/25 03:04:04;;;;;;;;;;;;;;;;;;5024842;28;42715;-79
2023/03/25 03:06:32;;;;;;;;;;;;;;;;;;5025366;28;43250;-77
2023/03/25 03:08:58;;;;;;;;;;;;;;;;;;5024597;28;43851;-79
2023/03/25 03:11:24;;;;;;;;;;;;;;;;;;5024263;28;43006;-77
2023/03/25 03:13:50;;;;;;;;;;;;;;;;;;5025399;28;43320;-76
2023/03/25 03:16:16;;;;;;;;;;;;;;;;;;5025341;28;42877;-80
2023/03/25 03:18:43;;;;;;;;;;;;;;;;;;5025095;28;43777;-76
2023/03/25 03:21:09;;;;;;;;;;;;;;;;;;5023756;28;42989;-76
2023/03/25 03:23:35;;;;;;;;;;;;;;;;;;5020743;28;43919;-76
2023/03/25 03:26:03;;;;;;;;;;;;;;;;;;5015828;28;42943;-80
2023/03/25 03:28:29;;;;;;;;;;;;;;;;;;5025214;28;42814;-76
2023/03/25 03:30:57;;;;;;;;;;;;;;;;;;5010045;28;42948;-76
2023/03/25 03:33:24;;;;;;;;;;;;;;;;;;5004504;28;43254;-79
2023/03/25 03:35:50;;;;;;;;;;;;;;;;;;5004573;28;42973;-79
2023/03/25 03:38:16;;;;;;;;;;;;;;;;;;5005183;28;44395;-78
2023/03/25 03:40:42;;;;;;;;;;;;;;;;;;5005142;28;43187;-79
2023/03/25 03:43:08;;;;;;;;;;;;;;;;;;5004292;28;42890;-76
2023/03/25 03:45:34;;;;;;;;;;;;;;;;;;5013537;28;43075;-76
2023/03/25 03:48:00;;;;;;;;;;;;;;;;;;5008783;28;43180;-78
2023/03/25 03:50:26;;;;;;;;;;;;;;;;;;5015802;28;42875;-76
2023/03/25 03:52:53;;;;;;;;;;;;;;;;;;5017712;28;42960;-77
2023/03/25 03:55:20;;;;;;;;;;;;;;;;;;5004193;28;42894;-80
2023/03/25 03:57:45;;;;;;;;;;;;;;;;;;5023620;28;43278;-79
2023/03/25 04:00:12;;;;;;;;;;;;;;;;;;5024549;28;42881;-78
2023/03/25 04:02:38;;;;;;;;;;;;;;;;;;5023186;28;43464;-79
2023/03/25 04:05:04;;;;;;;;;;;;;;;;;;5023831;28;42963;-79
2023/03/25 04:07:37;;;;;;;;;;;;;;;;;;5024266;28;43597;-78
2023/03/25 04:10:03;;;;;;;;;;;;;;;;;;5024275;28;43138;-79
2023/03/25 04:12:29;;;;;;;;;;;;;;;;;;5023460;28;43086;-78
2023/03/25 04:14:55;;;;;;;;;;;;;;;;;;5022236;28;42940;-78
2023/03/25 04:17:21;;;;;;;;;;;;;;;;;;5021207;28;43245;-80
2023/03/25 04:19:47;;;;;;;;;;;;;;;;;;5013265;28;43167;-80
2023/03/25 04:22:13;;;;;;;;;;;;;;;;;;5002918;28;44264;-80
2023/03/25 04:24:40;;;;;;;;;;;;;;;;;;5015941;28;42938;-79
2023/03/25 04:27:08;;;;;;;;;;;;;;;;;;5023789;28;43028;-79
2023/03/25 04:29:34;;;;;;;;;;;;;;;;;;5024165;28;42866;-79
2023/03/25 04:32:00;;;;;;;;;;;;;;;;;;5023241;28;43632;-78
2023/03/25 04:34:26;;;;;;;;;;;;;;;;;;5022988;28;42995;-78
2023/03/25 04:36:52;;;;;;;;;;;;;;;;;;5022777;28;42877;-80
2023/03/25 04:39:21;;;;;;;;;;;;;;;;;;5023283;28;43066;-79
2023/03/25 04:41:47;;;;;;;;;;;;;;;;;;5015256;28;43454;-79
2023/03/25 04:44:13;;;;;;;;;;;;;;;;;;5018626;28;42905;-78
2023/03/25 04:46:40;;;;;;;;;;;;;;;;;;5021858;28;42975;-77
2023/03/25 04:49:12;;;;;;;;;;;;;;;;;;5003243;28;43499;-79
2023/03/25 04:51:40;;;;;;;;;;;;;;;;;;5011069;28;43517;-78
2023/03/25 04:54:06;;;;;;;;;;;;;;;;;;5022309;28;42865;-80
2023/03/25 04:56:32;;;;;;;;;;;;;;;;;;5014201;28;43234;-79
2023/03/25 04:58:58;;;;;;;;;;;;;;;;;;5011164;28;42985;-72
2023/03/25 05:01:29;;;;;;;;;;;;;;;;;;5015015;28;43790;-79
2023/03/25 05:03:56;;;;;;;;;;;;;;;;;;5019880;28;43087;-79
2023/03/25 05:06:22;;;;;;;;;;;;;;;;;;5023434;28;43038;-79
2023/03/25 05:08:48;;;;;;;;;;;;;;;;;;5023643;28;42944;-80
2023/03/25 05:11:14;;;;;;;;;;;;;;;;;;5020633;28;43093;-79
2023/03/25 05:13:40;;;;;;;;;;;;;;;;;;5019536;28;42862;-79
2023/03/25 05:16:06;;;;;;;;;;;;;;;;;;5012859;28;42877;-80
2023/03/25 05:18:31;;;;;;;;;;;;;;;;;;5023666;28;42898;-79
2023/03/25 05:20:59;;;;;;;;;;;;;;;;;;5023021;28;43075;-78
2023/03/25 05:23:26;;;;;;;;;;;;;;;;;;5011160;28;43052;-78
2023/03/25 05:25:51;;;;;;;;;;;;;;;;;;5016660;28;43006;-77
2023/03/25 05:28:17;;;;;;;;;;;;;;;;;;5014404;28;43102;-79
2023/03/25 05:30:44;;;;;;;;;;;;;;;;;;5008148;28;43139;-79
2023/03/25 05:33:10;;;;;;;;;;;;;;;;;;5012191;28;43885;-80
2023/03/25 05:35:36;;;;;;;;;;;;;;;;;;5013601;28;42931;-79
2023/03/25 05:38:02;;;;;;;;;;;;;;;;;;5014072;28;43157;-78
2023/03/25 05:40:28;;;;;;;;;;;;;;;;;;5013643;28;44040;-77
2023/03/25 05:42:54;;;;;;;;;;;;;;;;;;5018909;28;43276;-78
2023/03/25 05:45:20;;;;;;;;;;;;;;;;;;5017863;28;44378;-79
2023/03/25 05:47:46;;;;;;;;;;;;;;;;;;5015177;28;43066;-78
2023/03/25 05:50:15;;;;;;;;;;;;;;;;;;5012181;28;43646;-78
2023/03/25 05:52:41;;;;;;;;;;;;;;;;;;5022667;28;42948;-80
2023/03/25 05:55:07;;;;;;;;;;;;;;;;;;5016946;28;43906;-79
2023/03/25 05:57:33;;;;;;;;;;;;;;;;;;5016995;28;42954;-80
2023/03/25 05:59:59;;;;;;;;;;;;;;;;;;5006327;28;43564;-79
2023/03/25 06:02:25;;;;;;;;;;;;;;;;;;5006843;28;42874;-79
2023/03/25 06:04:51;;;;;;;;;;;;;;;;;;5016469;28;42886;-79
2023/03/25 06:07:21;;;;;;;;;;;;;;;;;;5025306;28;42957;-78
2023/03/25 06:09:47;;;;;;;;;;;;;;;;;;5025844;28;43504;-79
2023/03/25 06:12:12;;;;;;;;;;;;;;;;;;5019493;28;43151;-77
2023/03/25 06:14:41;;;;;;;;;;;;;;;;;;5025045;28;43477;-79
2023/03/25 06:17:07;;;;;;;;;;;;;;;;;;5010686;28;42937;-79
2023/03/25 06:19:37;;;;;;;;;;;;;;;;;;5024805;28;44024;-80
2023/03/25 06:22:03;;;;;;;;;;;;;;;;;;5022766;28;43034;-78
2023/03/25 06:24:29;;;;;;;;;;;;;;;;;;5024673;28;42967;-78
2023/03/25 06:26:55;;;;;;;;;;;;;;;;;;5024641;28;43083;-79
2023/03/25 06:29:21;;;;;;;;;;;;;;;;;;5007906;28;44217;-77
2023/03/25 06:31:47;;;;;;;;;;;;;;;;;;4987696;28;43070;-76
2023/03/25 06:34:13;;;;;;;;;;;;;;;;;;5013639;28;42787;-79
2023/03/25 06:36:39;;;;;;;;;;;;;;;;;;5017885;28;43052;-78
2023/03/25 06:39:05;;;;;;;;;;;;;;;;;;5019699;28;43056;-77
2023/03/25 06:41:34;;;;;;;;;;;;;;;;;;5036680;28;42995;-78
2023/03/25 06:44:00;;;;;;;;;;;;;;;;;;5013659;28;43587;-79
2023/03/25 06:46:26;;;;;;;;;;;;;;;;;;5019109;28;43080;-77
2023/03/25 06:48:52;;;;;;;;;;;;;;;;;;5025333;28;43543;-78
2023/03/25 06:51:20;;;;;;;;;;;;;;;;;;5024298;28;43045;-78
2023/03/25 06:53:46;;;;;;;;;;;;;;;;;;5009487;28;44155;-78
2023/03/25 06:56:12;;;;;;;;;;;;;;;;;;5014005;28;42985;-79
2023/03/25 06:58:40;;;;;;;;;;;;;;;;;;5014926;28;44393;-79
2023/03/25 07:01:06;;;;;;;;;;;;;;;;;;5015643;28;43093;-79
2023/03/25 07:03:32;;;;;;;;;;;;;;;;;;5015456;28;43055;-79
2023/03/25 07:05:58;;;;;;;;;;;;;;;;;;5018698;28;43087;-78
2023/03/25 07:08:24;;;;;;;;;;;;;;;;;;5012364;28;43398;-79
2023/03/25 07:10:49;;;;;;;;;;;;;;;;;;5013134;28;43002;-77
2023/03/25 07:13:15;;;;;;;;;;;;;;;;;;5012129;28;44040;-77
2023/03/25 07:15:41;;;;;;;;;;;;;;;;;;5014787;28;43225;-76
2023/03/25 07:18:07;;;;;;;;;;;;;;;;;;5012653;28;42945;-79
2023/03/25 07:20:33;;;;;;;;;;;;;;;;;;5013241;28;43144;-75
2023/03/25 07:22:59;;;;;;;;;;;;;;;;;;5013067;28;43916;-76
2023/03/25 07:25:25;;;;;;;;;;;;;;;;;;5017229;28;43391;-74
2023/03/25 07:27:51;;;;;;;;;;;;;;;;;;5014030;28;43001;-79
2023/03/25 07:30:17;;;;;;;;;;;;;;;;;;5014213;28;42908;-78
2023/03/25 07:32:43;;;;;;;;;;;;;;;;;;5012805;28;43669;-77
2023/03/25 07:35:09;;;;;;;;;;;;;;;;;;5015468;28;43036;-76
2023/03/25 07:37:35;;;;;;;;;;;;;;;;;;5012741;28;42928;-77
2023/03/25 07:40:00;;;;;;;;;;;;;;;;;;5015541;28;43040;-78
2023/03/25 07:42:26;;;;;;;;;;;;;;;;;;5015477;28;43415;-81
2023/03/25 07:44:52;;;;;;;;;;;;;;;;;;5015950;28;43020;-76
2023/03/25 07:47:18;;;;;;;;;;;;;;;;;;5014483;28;43726;-76
2023/03/25 07:49:45;;;;;;;;;;;;;;;;;;5013002;28;42937;-77
2023/03/25 07:52:11;;;;;;;;;;;;;;;;;;5013068;28;43684;-76
2023/03/25 07:54:37;;;;;;;;;;;;;;;;;;5016636;28;43529;-76
2023/03/25 07:57:03;;;;;;;;;;;;;;;;;;5014550;28;43083;-76
2023/03/25 07:59:29;;;;;;;;;;;;;;;;;;5018778;28;42939;-79
2023/03/25 08:01:55;;;;;;;;;;;;;;;;;;5017844;28;42949;-79
2023/03/25 08:04:21;;;;;;;;;;;;;;;;;;5017477;28;43938;-79
2023/03/25 08:06:46;;;;;;;;;;;;;;;;;;5017999;28;44120;-79
2023/03/25 08:09:12;;;;;;;;;;;;;;;;;;5013720;28;42984;-78
2023/03/25 08:11:38;;;;;;;;;;;;;;;;;;5013575;28;43864;-78
2023/03/25 08:14:04;;;;;;;;;;;;;;;;;;5004126;28;43288;-79
2023/03/25 08:16:30;;;;;;;;;;;;;;;;;;5004459;28;43027;-78
2023/03/25 08:18:56;;;;;;;;;;;;;;;;;;5004759;28;43041;-78
2023/03/25 08:21:24;;;;;;;;;;;;;;;;;;5005845;28;43415;-78
2023/03/25 08:23:50;;;;;;;;;;;;;;;;;;5018725;28;42929;-79
2023/03/25 08:26:16;;;;;;;;;;;;;;;;;;5023946;28;42930;-79
2023/03/25 08:28:42;;;;;;;;;;;;;;;;;;5015380;28;42878;-80
2023/03/25 08:31:08;;;;;;;;;;;;;;;;;;5012681;28;44023;-80
2023/03/25 08:33:38;;;;;;;;;;;;;;;;;;5017204;28;43102;-80
2023/03/25 08:36:04;;;;;;;;;;;;;;;;;;5001399;28;43033;-80
2023/03/25 08:38:30;;;;;;;;;;;;;;;;;;5012558;28;42953;-79
2023/03/25 08:40:56;;;;;;;;;;;;;;;;;;5019958;28;43562;-80
2023/03/25 08:43:22;;;;;;;;;;;;;;;;;;5021188;28;43022;-80
2023/03/25 08:45:48;;;;;;;;;;;;;;;;;;5017358;28;42841;-80
2023/03/25 08:48:14;;;;;;;;;;;;;;;;;;5014852;28;42894;-80
2023/03/25 08:50:40;;;;;;;;;;;;;;;;;;5010081;28;43522;-80
2023/03/25 08:53:06;;;;;;;;;;;;;;;;;;5012211;28;43039;-80
2023/03/25 08:55:32;;;;;;;;;;;;;;;;;;5004642;28;42998;-80
2023/03/25 08:57:57;;;;;;;;;;;;;;;;;;5004168;28;43044;-80
2023/03/25 09:00:26;;;;;;;;;;;;;;;;;;5014529;28;43041;-80
2023/03/25 09:02:52;;;;;;;;;;;;;;;;;;5024022;28;42893;-80
2023/03/25 09:05:18;;;;;;;;;;;;;;;;;;5024403;28;42783;-80
2023/03/25 09:07:44;;;;;;;;;;;;;;;;;;5023733;28;42870;-81
2023/03/25 09:10:11;;;;;;;;;;;;;;;;;;5026540;28;43671;-80
2023/03/25 09:12:37;;;;;;;;;;;;;;;;;;5027698;28;43062;-80
2023/03/25 09:15:03;;;;;;;;;;;;;;;;;;5027631;28;43577;-80
2023/03/25 09:17:29;;;;;;;;;;;;;;;;;;5027063;28;43033;-80
2023/03/25 09:19:55;;;;;;;;;;;;;;;;;;5024477;28;43650;-79
2023/03/25 09:22:21;;;;;;;;;;;;;;;;;;5025903;28;43015;-80
2023/03/25 09:24:47;;;;;;;;;;;;;;;;;;5025069;28;42891;-80
2023/03/25 09:27:13;;;;;;;;;;;;;;;;;;5016236;28;42946;-80
2023/03/25 09:29:39;;;;;;;;;;;;;;;;;;5007690;28;42802;-80
2023/03/25 09:32:05;;;;;;;;;;;;;;;;;;5023078;28;43056;-80
2023/03/25 09:34:31;;;;;;;;;;;;;;;;;;5020267;28;42899;-80
2023/03/25 09:36:57;;;;;;;;;;;;;;;;;;5012384;28;43036;-80
2023/03/25 09:39:23;;;;;;;;;;;;;;;;;;5007450;28;43504;-80
2023/03/25 09:41:49;;;;;;;;;;;;;;;;;;5006873;28;43063;-80
2023/03/25 09:44:15;;;;;;;;;;;;;;;;;;5024633;28;43674;-80
2023/03/25 09:46:41;;;;;;;;;;;;;;;;;;5027178;28;42922;-80
2023/03/25 09:49:06;;;;;;;;;;;;;;;;;;5026211;28;42975;-79
2023/03/25 09:51:34;;;;;;;;;;;;;;;;;;5015853;28;43140;-80
2023/03/25 09:53:59;;;;;;;;;;;;;;;;;;5023307;28;42943;-79
2023/03/25 09:56:27;;;;;;;;;;;;;;;;;;5042775;28;43036;-80
2023/03/25 09:58:53;;;;;;;;;;;;;;;;;;5047155;28;42813;-79
2023/03/25 10:01:20;;;;;;;;;;;;;;;;;;5047102;28;42912;-80
2023/03/25 10:03:45;;;;;;;;;;;;;;;;;;5031979;28;43616;-79
2023/03/25 10:06:11;;;;;;;;;;;;;;;;;;5026043;28;42918;-80
2023/03/25 10:08:37;;;;;;;;;;;;;;;;;;5025870;28;42960;-80
2023/03/25 10:11:03;;;;;;;;;;;;;;;;;;5025611;28;43005;-80
2023/03/25 10:13:29;;;;;;;;;;;;;;;;;;5025365;28;43159;-80
2023/03/25 10:15:55;;;;;;;;;;;;;;;;;;5025421;28;42946;-80
2023/03/25 10:18:21;;;;;;;;;;;;;;;;;;5013824;28;42962;-80
2023/03/25 10:20:47;;;;;;;;;;;;;;;;;;5026371;28;43016;-80
2023/03/25 10:23:13;;;;;;;;;;;;;;;;;;5009701;28;43886;-79
2023/03/25 10:25:40;;;;;;;;;;;;;;;;;;4991561;28;43004;-80
2023/03/25 10:28:07;;;;;;;;;;;;;;;;;;5005862;28;43720;-80
2023/03/25 10:30:34;;;;;;;;;;;;;;;;;;5006586;28;42871;-80
2023/03/25 10:33:00;;;;;;;;;;;;;;;;;;5012899;28;43032;-80
2023/03/25 10:35:26;;;;;;;;;;;;;;;;;;5019255;28;43019;-80
2023/03/25 10:37:52;;;;;;;;;;;;;;;;;;5025661;28;42928;-80
2023/03/25 10:40:18;;;;;;;;;;;;;;;;;;5008103;28;43125;-84
2023/03/25 10:42:44;;;;;;;;;;;;;;;;;;5025319;28;43430;-82
2023/03/25 10:45:10;;;;;;;;;;;;;;;;;;5026419;28;42798;-83
2023/03/25 10:47:36;;;;;;;;;;;;;;;;;;5025967;28;43664;-81
2023/03/25 10:50:03;;;;;;;;;;;;;;;;;;5021832;28;42977;-82
2023/03/25 10:52:29;;;;;;;;;;;;;;;;;;5005843;28;43417;-82
2023/03/25 10:54:55;;;;;;;;;;;;;;;;;;5006566;28;43269;-80
2023/03/25 10:57:21;;;;;;;;;;;;;;;;;;5010104;28;43563;-79
2023/03/25 10:59:47;;;;;;;;;;;;;;;;;;5016783;28;42879;-78
2023/03/25 11:02:12;;;;;;;;;;;;;;;;;;5014090;28;42892;-79
2023/03/25 11:04:39;;;;;;;;;;;;;;;;;;5014348;28;43017;-78
2023/03/25 11:07:07;;;;;;;;;;;;;;;;;;5018566;28;43068;-81
2023/03/25 11:09:35;;;;;;;;;;;;;;;;;;5018296;28;42968;-79
2023/03/25 11:12:01;;;;;;;;;;;;;;;;;;5025693;28;43432;-79
2023/03/25 11:14:27;;;;;;;;;;;;;;;;;;5025691;28;43038;-78
2023/03/25 11:16:53;;;;;;;;;;;;;;;;;;5026180;28;43924;-79
2023/03/25 11:19:19;;;;;;;;;;;;;;;;;;5025895;28;43019;-79
2023/03/25 11:21:45;;;;;;;;;;;;;;;;;;5025524;28;43455;-80
2023/03/25 11:24:11;;;;;;;;;;;;;;;;;;5026068;28;42908;-79
2023/03/25 11:26:36;;;;;;;;;;;;;;;;;;5025955;28;43623;-78
2023/03/25 11:29:02;;;;;;;;;;;;;;;;;;5025979;28;42759;-79
2023/03/25 11:31:29;;;;;;;;;;;;;;;;;;5024794;28;44524;-79
2023/03/25 11:33:55;;;;;;;;;;;;;;;;;;5025651;28;42826;-79
2023/03/25 11:36:21;;;;;;;;;;;;;;;;;;5025447;28;43566;-79
2023/03/25 11:38:47;;;;;;;;;;;;;;;;;;5025294;28;42743;-80
2023/03/25 11:41:13;;;;;;;;;;;;;;;;;;5024063;28;42942;-78
2023/03/25 11:43:39;;;;;;;;;;;;;;;;;;5021109;28;43183;-77
2023/03/25 11:46:05;;;;;;;;;;;;;;;;;;5020432;28;45529;-80
2023/03/25 11:48:31;;;;;;;;;;;;;;;;;;5014607;28;42751;-80
2023/03/25 11:50:57;;;;;;;;;;;;;;;;;;5012972;28;43525;-80
2023/03/25 11:53:23;;;;;;;;;;;;;;;;;;5014037;28;42876;-78
2023/03/25 11:55:49;;;;;;;;;;;;;;;;;;5015937;28;42917;-84
2023/03/25 11:58:15;;;;;;;;;;;;;;;;;;5012214;28;42777;-75
2023/03/25 12:00:41;;;;;;;;;;;;;;;;;;5013737;28;43083;-84
2023/03/25 12:03:07;;;;;;;;;;;;;;;;;;5013396;28;43013;-83
2023/03/25 12:05:32;;;;;;;;;;;;;;;;;;5016591;28;44120;-78
2023/03/25 12:07:58;;;;;;;;;;;;;;;;;;5015153;28;43391;-77
2023/03/25 12:10:24;;;;;;;;;;;;;;;;;;5014305;28;43854;-82
2023/03/25 12:12:50;;;;;;;;;;;;;;;;;;5012432;28;42679;-88
2023/03/25 12:15:16;;;;;;;;;;;;;;;;;;5013475;28;43012;-82
2023/03/25 12:17:42;;;;;;;;;;;;;;;;;;5013977;28;43269;-86
2023/03/25 12:20:10;;;;;;;;;;;;;;;;;;4998255;28;44318;-89
2023/03/25 12:22:36;;;;;;;;;;;;;;;;;;5015505;28;42920;-82
2023/03/25 12:25:02;;;;;;;;;;;;;;;;;;5016337;28;42879;-81
2023/03/25 12:27:28;;;;;;;;;;;;;;;;;;5024865;28;42941;-81
2023/03/25 12:29:54;;;;;;;;;;;;;;;;;;5009497;28;43256;-81
2023/03/25 12:32:20;;;;;;;;;;;;;;;;;;5023875;28;42743;-82
2023/03/25 12:34:48;;;;;;;;;;;;;;;;;;4999704;28;43029;-82
2023/03/25 12:37:14;;;;;;;;;;;;;;;;;;5013596;28;43027;-81
2023/03/25 12:39:39;;;;;;;;;;;;;;;;;;5011516;28;43431;-81
2023/03/25 12:42:06;;;;;;;;;;;;;;;;;;5019357;28;43685;-82
2023/03/25 12:44:32;;;;;;;;;;;;;;;;;;5008014;28;42954;-81
2023/03/25 12:46:58;;;;;;;;;;;;;;;;;;5023502;28;43583;-81
2023/03/25 12:49:24;;;;;;;;;;;;;;;;;;5006743;28;44995;-82
2023/03/25 12:51:50;;;;;;;;;;;;;;;;;;5023986;28;42992;-82
2023/03/25 12:54:16;;;;;;;;;;;;;;;;;;5002445;28;42939;-82
2023/03/25 12:56:41;;;;;;;;;;;;;;;;;;5028175;28;42756;-82
2023/03/25 12:59:07;;;;;;;;;;;;;;;;;;5023986;28;43975;-83
2023/03/25 13:01:35;;;;;;;;;;;;;;;;;;5019392;28;43072;-80
2023/03/25 13:04:01;;;;;;;;;;;;;;;;;;5026988;28;43398;-81
2023/03/25 13:06:29;;;;;;;;;;;;;;;;;;5023327;28;43055;-86
2023/03/25 13:08:55;;;;;;;;;;;;;;;;;;5025909;28;43452;-87
2023/03/25 13:11:21;;;;;;;;;;;;;;;;;;5006785;28;43337;-85
2023/03/25 13:13:47;;;;;;;;;;;;;;;;;;5010544;28;42889;-94
2023/03/25 13:16:13;;;;;;;;;;;;;;;;;;5021051;28;43038;-88
2023/03/25 13:18:39;;;;;;;;;;;;;;;;;;5021828;28;43635;-84
2023/03/25 13:21:07;;;;;;;;;;;;;;;;;;5012705;28;43037;-81
2023/03/25 13:23:33;;;;;;;;;;;;;;;;;;5014647;28;42996;-81
2023/03/25 13:25:59;;;;;;;;;;;;;;;;;;5029649;28;43493;-81
2023/03/25 13:28:25;;;;;;;;;;;;;;;;;;4989224;28;45358;-81
2023/03/25 13:30:54;;;;;;;;;;;;;;;;;;5005154;28;42941;-81
2023/03/25 13:33:20;;;;;;;;;;;;;;;;;;4990828;28;43707;-88
2023/03/25 13:35:46;;;;;;;;;;;;;;;;;;5005931;28;43119;-87
2023/03/25 13:38:12;;;;;;;;;;;;;;;;;;4990728;28;44920;-87
2023/03/25 13:40:38;;;;;;;;;;;;;;;;;;5004713;28;42971;-89
2023/03/25 13:43:04;;;;;;;;;;;;;;;;;;5003951;28;44032;-87
2023/03/25 13:45:30;;;;;;;;;;;;;;;;;;5004365;28;42936;-89
2023/03/25 13:47:56;;;;;;;;;;;;;;;;;;5000343;28;44468;-90
2023/03/25 13:50:22;;;;;;;;;;;;;;;;;;5004071;28;42988;-90
2023/03/25 13:52:51;;;;;;;;;;;;;;;;;;4989107;28;44303;-87
2023/03/25 13:55:17;;;;;;;;;;;;;;;;;;5001452;28;43316;-87
2023/03/25 13:57:43;;;;;;;;;;;;;;;;;;5001966;28;43854;-86
2023/03/25 14:00:10;;;;;;;;;;;;;;;;;;5004004;28;43238;-86
2023/03/25 14:02:42;;;;;;;;;;;;;;;;;;5009154;28;44468;-89
2023/03/25 14:05:09;;;;;;;;;;;;;;;;;;5005541;28;42905;-85
2023/03/25 14:07:35;;;;;;;;;;;;;;;;;;4983704;28;43668;-82
2023/03/25 14:10:01;;;;;;;;;;;;;;;;;;5002553;28;43054;-84
2023/03/25 14:12:28;;;;;;;;;;;;;;;;;;5038077;28;44441;-81
2023/03/25 14:14:54;;;;;;;;;;;;;;;;;;5033090;28;43077;-83
2023/03/25 14:17:21;;;;;;;;;;;;;;;;;;4984654;28;44349;-81
2023/03/25 14:19:47;;;;;;;;;;;;;;;;;;5001895;28;42992;-80
2023/03/25 14:22:13;;;;;;;;;;;;;;;;;;5006225;28;42952;-85
2023/03/25 14:24:40;;;;;;;;;;;;;;;;;;4997075;28;43087;-81
2023/03/25 14:27:06;;;;;;;;;;;;;;;;;;4985501;28;43518;-86
2023/03/25 14:29:32;;;;;;;;;;;;;;;;;;5000501;28;42830;-81
2023/03/25 14:31:58;;;;;;;;;;;;;;;;;;5003525;28;44552;-81
2023/03/25 14:34:24;;;;;;;;;;;;;;;;;;5005100;28;42739;-83
2023/03/25 14:36:51;;;;;;;;;;;;;;;;;;5003538;28;64294;-84
2023/03/25 14:39:17;;;;;;;;;;;;;;;;;;5002754;28;43034;-82
2023/03/25 14:41:43;;;;;;;;;;;;;;;;;;5005137;28;43040;-83
2023/03/25 14:44:09;;;;;;;;;;;;;;;;;;5000227;28;42942;-83
2023/03/25 14:46:35;;;;;;;;;;;;;;;;;;4989350;28;43735;-83
2023/03/25 14:49:03;;;;;;;;;;;;;;;;;;5005088;28;42782;-82
2023/03/25 14:51:28;;;;;;;;;;;;;;;;;;4993489;28;44610;-84
2023/03/25 14:53:55;;;;;;;;;;;;;;;;;;4986168;28;43052;-84
2023/03/25 14:56:20;;;;;;;;;;;;;;;;;;4989360;28;43024;-84
2023/03/25 14:58:47;;;;;;;;;;;;;;;;;;5005341;28;43773;-84
2023/03/25 15:01:13;;;;;;;;;;;;;;;;;;5003230;28;44599;-83
2023/03/25 15:03:41;;;;;;;;;;;;;;;;;;4994196;28;43151;-87
2023/03/25 15:06:08;;;;;;;;;;;;;;;;;;4984994;28;42840;-78
2023/03/25 15:08:33;;;;;;;;;;;;;;;;;;4995793;28;43052;-82
2023/03/25 15:10:59;;;;;;;;;;;;;;;;;;5004954;28;43052;-84
2023/03/25 15:13:28;;;;;;;;;;;;;;;;;;5003220;28;42936;-89
2023/03/25 15:15:56;;;;;;;;;;;;;;;;;;5017101;28;45066;-86
2023/03/25 15:18:22;;;;;;;;;;;;;;;;;;5002776;28;42875;-81
2023/03/25 15:20:48;;;;;;;;;;;;;;;;;;5004440;28;42972;-81
2023/03/25 15:23:14;;;;;;;;;;;;;;;;;;5005229;28;42981;-81
2023/03/25 15:25:40;;;;;;;;;;;;;;;;;;5005432;28;43532;-81
2023/03/25 15:28:06;;;;;;;;;;;;;;;;;;5005191;28;42996;-82
2023/03/25 15:30:32;;;;;;;;;;;;;;;;;;5005315;28;43036;-82
2023/03/25 15:32:57;;;;;;;;;;;;;;;;;;5017835;28;43276;-82
2023/03/25 15:35:23;;;;;;;;;;;;;;;;;;5025461;28;43046;-81
2023/03/25 15:37:49;;;;;;;;;;;;;;;;;;5024512;28;42989;-81
2023/03/25 15:40:15;;;;;;;;;;;;;;;;;;5024751;28;43823;-81
2023/03/25 15:42:41;;;;;;;;;;;;;;;;;;5023804;28;43029;-81
2023/03/25 15:45:07;;;;;;;;;;;;;;;;;;5025359;28;43725;-80
2023/03/25 15:47:33;;;;;;;;;;;;;;;;;;5025145;28;42896;-80
2023/03/25 15:49:59;;;;;;;;;;;;;;;;;;5024529;28;43475;-80
2023/03/25 15:52:25;;;;;;;;;;;;;;;;;;5025042;28;43111;-80
2023/03/25 15:54:51;;;;;;;;;;;;;;;;;;5024652;28;42929;-80
2023/03/25 15:57:18;;;;;;;;;;;;;;;;;;5025019;28;43032;-80
2023/03/25 15:59:44;;;;;;;;;;;;;;;;;;5024475;28;43663;-80
2023/03/25 16:02:09;;;;;;;;;;;;;;;;;;5024062;28;42889;-80
2023/03/25 16:04:35;;;;;;;;;;;;;;;;;;5024679;28;43297;-80
2023/03/25 16:07:01;;;;;;;;;;;;;;;;;;5022561;28;43049;-78
2023/03/25 16:09:27;;;;;;;;;;;;;;;;;;5023698;28;43653;-79
2023/03/25 16:11:53;;;;;;;;;;;;;;;;;;5024525;28;42929;-80
2023/03/25 16:14:19;;;;;;;;;;;;;;;;;;5024444;28;43430;-80
2023/03/25 16:16:45;;;;;;;;;;;;;;;;;;5023876;28;43088;-80
2023/03/25 16:19:11;;;;;;;;;;;;;;;;;;5022926;28;42747;-80
2023/03/25 16:21:37;;;;;;;;;;;;;;;;;;5024640;28;42946;-81
2023/03/25 16:24:03;;;;;;;;;;;;;;;;;;5024579;28;43059;-80
2023/03/25 16:26:29;;;;;;;;;;;;;;;;;;5024381;28;43043;-80
2023/03/25 16:28:55;;;;;;;;;;;;;;;;;;5022359;28;45570;-80
2023/03/25 16:31:21;;;;;;;;;;;;;;;;;;5023557;28;42959;-79
2023/03/25 16:33:47;;;;;;;;;;;;;;;;;;5004977;28;44099;-80
2023/03/25 16:36:13;;;;;;;;;;;;;;;;;;4986099;28;43097;-80
2023/03/25 16:38:39;;;;;;;;;;;;;;;;;;5008715;28;43461;-80